Rk 19 — UBAJ9 — position and weather

sailwx.info

Track history (hours):
 
Tides and Currents Weather Stations Pressure Air Temp Water Temp Dewpoint Dewpoint Depression Visibility Wind Speed Wind Dir Waves Ship Positions

Rk 19

Last reported at 2018-Apr-23 05:31 UTC. Time now 2018-Apr-23 05:29 UTC.
Position N 45°21' E 036°40'.

Length 19 m; draft 1.6 m.

Type: Passenger vessel. MMSI: 273424540.

Date/timePositionNaut miles runAvg speedWind from/ knotsBaromVisibWave heightAir tempDewpointWater temp
2018-Apr-23 05:31N 45°21' E 036°40'0 0.0
2018-Apr-23 05:01N 45°21' E 036°40'0 0.0
2018-Apr-23 04:30N 45°21' E 036°40'0 0.0
2018-Apr-23 04:01N 45°21' E 036°40'0 0.0
2018-Apr-23 03:31N 45°21' E 036°40'0 0.0
2018-Apr-23 03:00N 45°21' E 036°40'0 0.0
2018-Apr-23 02:30N 45°21' E 036°40'0 0.0
2018-Apr-23 02:00N 45°21' E 036°40'0 0.0
2018-Apr-23 01:30N 45°21' E 036°40'0 0.0
2018-Apr-23 01:00N 45°21' E 036°40'0 0.0
2018-Apr-23 00:30N 45°21' E 036°40'0 0.0
2018-Apr-22 23:59N 45°21' E 036°40'0 0.0
2018-Apr-22 23:30N 45°21' E 036°40'1 1.6
2018-Apr-22 23:00N 45°21' E 036°39'14 2.2
2018-Apr-22 16:34N 45°07' E 036°35'2 2.9
2018-Apr-22 15:55N 45°08' E 036°33'2 5.3
2018-Apr-22 15:29N 45°10' E 036°31'4 7.2
2018-Apr-22 14:55N 45°14' E 036°29'3 7.2
2018-Apr-22 14:31N 45°17' E 036°29'3 5.9
2018-Apr-22 14:00N 45°19' E 036°32'3 6.9
2018-Apr-22 13:31N 45°20' E 036°37'3 5.2
2018-Apr-22 13:00N 45°20' E 036°40'0 0.3
2018-Apr-22 12:31N 45°21' E 036°40'0 0.0
2018-Apr-22 12:01N 45°21' E 036°40'0 0.0
2018-Apr-22 11:31N 45°21' E 036°40'0 0.0
2018-Apr-22 11:00N 45°21' E 036°40'0 0.0
2018-Apr-22 10:30N 45°21' E 036°40'0 0.0
2018-Apr-22 10:01N 45°21' E 036°40'0 0.0
2018-Apr-22 09:31N 45°21' E 036°40'0 0.0
2018-Apr-22 09:01N 45°21' E 036°40'0 0.0
2018-Apr-22 08:30N 45°21' E 036°40'0 0.0
2018-Apr-22 08:00N 45°21' E 036°40'0 0.0
2018-Apr-22 07:30N 45°21' E 036°40'0 0.0
2018-Apr-22 07:00N 45°21' E 036°40'0 0.0
2018-Apr-22 06:30N 45°21' E 036°40'0 0.0
2018-Apr-22 06:00N 45°21' E 036°40'0 0.0
2018-Apr-22 05:30N 45°21' E 036°40'0 0.0
2018-Apr-22 05:00N 45°21' E 036°40'0 0.0
2018-Apr-22 04:30N 45°21' E 036°40'0 0.0
2018-Apr-22 03:59N 45°21' E 036°40'0 0.0
2018-Apr-22 03:30N 45°21' E 036°40'0 0.0
2018-Apr-22 03:00N 45°21' E 036°40'0 0.0
2018-Apr-22 02:30N 45°21' E 036°40'0 0.0
2018-Apr-22 02:00N 45°21' E 036°40'0 0.0
2018-Apr-22 01:30N 45°21' E 036°40'0 0.0
2018-Apr-22 01:00N 45°21' E 036°40'0 0.0
2018-Apr-22 00:31N 45°21' E 036°40'0 0.0
2018-Apr-22 00:00N 45°21' E 036°40'0 0.0
2018-Apr-21 23:31N 45°21' E 036°40'0 0.0
2018-Apr-21 23:00N 45°21' E 036°40'0 0.0
2018-Apr-21 22:30N 45°21' E 036°40'0 0.0
2018-Apr-21 22:00N 45°21' E 036°40'0 0.0
2018-Apr-21 21:30N 45°21' E 036°40'0 0.0
2018-Apr-21 21:01N 45°21' E 036°40'0 0.0
2018-Apr-21 20:30N 45°21' E 036°40'0 0.0
2018-Apr-21 20:00N 45°21' E 036°40'0 0.0
2018-Apr-21 19:29N 45°21' E 036°40'0 0.0
2018-Apr-21 19:00N 45°21' E 036°40'0 0.0
2018-Apr-21 18:30N 45°21' E 036°40'0 0.0
2018-Apr-21 18:00N 45°21' E 036°40'0 0.0
2018-Apr-21 17:30N 45°21' E 036°40'0 0.0
2018-Apr-21 17:00N 45°21' E 036°40'0 0.0
2018-Apr-21 16:30N 45°21' E 036°40'0 0.0
2018-Apr-21 16:00N 45°21' E 036°40'1 2.8
2018-Apr-21 15:31N 45°20' E 036°38'3 6.8
2018-Apr-21 15:00N 45°19' E 036°34'5 6.1
2018-Apr-21 14:14N 45°16' E 036°29'5 1.5
2018-Apr-21 10:44N 45°11' E 036°31'2 7.0
2018-Apr-21 10:29N 45°13' E 036°29'3 6.7
2018-Apr-21 10:00N 45°16' E 036°28'3 6.6
2018-Apr-21 09:30N 45°19' E 036°31'3 7.0
2018-Apr-21 09:00N 45°20' E 036°35'3 6.8
2018-Apr-21 08:30N 45°21' E 036°40'0 0.7
2018-Apr-21 08:00N 45°20' E 036°40'0 0.3
2018-Apr-21 07:30N 45°21' E 036°40'0 0.0
2018-Apr-21 07:00N 45°21' E 036°40'0 0.0
2018-Apr-21 06:30N 45°21' E 036°40'0 0.0
2018-Apr-21 06:00N 45°21' E 036°40'0 0.0
2018-Apr-21 05:30N 45°21' E 036°40'0 0.0
2018-Apr-21 05:01N 45°21' E 036°40'0 0.0
2018-Apr-21 04:31N 45°21' E 036°40'0 0.0
2018-Apr-21 04:01N 45°21' E 036°40'0 0.0
2018-Apr-21 03:30N 45°21' E 036°40'0 0.0
2018-Apr-21 03:01N 45°21' E 036°40'0 0.0
2018-Apr-21 02:30N 45°21' E 036°40'0 0.0
2018-Apr-21 02:01N 45°21' E 036°40'0 0.0
2018-Apr-21 01:31N 45°21' E 036°40'0 0.0
2018-Apr-21 01:00N 45°21' E 036°40'0 0.0
2018-Apr-21 00:31N 45°21' E 036°40'0 0.0
2018-Apr-21 00:01N 45°21' E 036°40'0 0.0
2018-Apr-20 23:31N 45°21' E 036°40'0 0.0
2018-Apr-20 23:01N 45°21' E 036°40'1 2.1
2018-Apr-20 22:30N 45°21' E 036°39'3 6.6
2018-Apr-20 22:00N 45°19' E 036°34'3 6.4
2018-Apr-20 21:29N 45°18' E 036°30'7 0.7
2018-Apr-20 10:43N 45°11' E 036°30'2 7.4
2018-Apr-20 10:29N 45°13' E 036°29'3 7.1
2018-Apr-20 10:00N 45°16' E 036°28'3 6.5
2018-Apr-20 09:30N 45°19' E 036°31'4 7.2
2018-Apr-20 09:00N 45°20' E 036°36'3 6.3
2018-Apr-20 08:30N 45°20' E 036°40'0 0.1
2018-Apr-20 08:00N 45°20' E 036°40'0 0.3
2018-Apr-20 07:29N 45°21' E 036°40'0 0.0
2018-Apr-20 07:00N 45°21' E 036°40'0 0.0
2018-Apr-20 06:30N 45°21' E 036°40'0 0.0
2018-Apr-20 06:00N 45°21' E 036°40'0 0.0
2018-Apr-20 05:30N 45°21' E 036°40'0 0.0
2018-Apr-20 05:00N 45°21' E 036°40'0 0.0
2018-Apr-20 04:30N 45°21' E 036°40'0 0.0
2018-Apr-20 04:00N 45°21' E 036°40'0 0.0
2018-Apr-20 03:30N 45°21' E 036°40'0 0.0
2018-Apr-20 03:00N 45°21' E 036°40'0 0.6
2018-Apr-20 02:30N 45°21' E 036°40'0 0.6
2018-Apr-20 02:00N 45°21' E 036°40'0 0.0
2018-Apr-20 01:30N 45°21' E 036°40'0 0.0
2018-Apr-20 01:00N 45°21' E 036°40'0 0.0
2018-Apr-20 00:30N 45°21' E 036°40'0 0.0
2018-Apr-20 00:00N 45°21' E 036°40'0 0.0
2018-Apr-19 23:30N 45°21' E 036°40'0 0.0
2018-Apr-19 23:00N 45°21' E 036°40'0 0.0
2018-Apr-19 22:29N 45°21' E 036°40'0 0.0
2018-Apr-19 21:58N 45°21' E 036°40'0 0.0
2018-Apr-19 21:30N 45°21' E 036°40'0 0.0
2018-Apr-19 21:00N 45°21' E 036°40'0 0.0
2018-Apr-19 20:30N 45°21' E 036°40'0 0.0
2018-Apr-19 20:00N 45°21' E 036°40'0 0.0
2018-Apr-19 19:30N 45°21' E 036°40'0 0.0
2018-Apr-19 19:00N 45°21' E 036°40'0 0.2
2018-Apr-19 18:30N 45°20' E 036°40'2 4.3
2018-Apr-19 18:00N 45°23' E 036°40'2 4.1
2018-Apr-19 17:30N 45°21' E 036°40'0 0.0
2018-Apr-19 17:00N 45°21' E 036°40'0 0.0
2018-Apr-19 16:30N 45°21' E 036°40'0 0.0
2018-Apr-19 16:00N 45°21' E 036°40'0 0.0
2018-Apr-19 15:30N 45°21' E 036°40'0 0.0
2018-Apr-19 15:00N 45°21' E 036°40'0 0.3
2018-Apr-19 14:30N 45°20' E 036°40'3 6.1
2018-Apr-19 14:00N 45°20' E 036°36'4 7.3
2018-Apr-19 13:29N 45°19' E 036°31'8 3.2
2018-Apr-19 10:50N 45°10' E 036°33'3 7.1
2018-Apr-19 10:27N 45°12' E 036°30'3 6.8
2018-Apr-19 09:58N 45°15' E 036°28'3 7.0
2018-Apr-19 09:30N 45°18' E 036°30'3 7.0
2018-Apr-19 09:00N 45°19' E 036°34'4 0.4
2018-Apr-18 21:10N 45°21' E 036°40'0 0.0
2018-Apr-18 21:00N 45°21' E 036°40'2 4.8
2018-Apr-18 20:30N 45°20' E 036°37'13 2.7
2018-Apr-18 15:28N 45°07' E 036°34'2 3.7
2018-Apr-18 15:00N 45°08' E 036°34'2 3.0
2018-Apr-18 14:29N 45°10' E 036°33'0 0.0
2018-Apr-18 14:00N 45°10' E 036°33'0 0.0
2018-Apr-18 13:30N 45°10' E 036°33'1 2.8
2018-Apr-18 13:00N 45°09' E 036°35'2 4.1
2018-Apr-18 12:30N 45°10' E 036°32'3 6.9
2018-Apr-18 12:00N 45°13' E 036°29'3 6.6
2018-Apr-18 11:30N 45°16' E 036°28'3 6.4
2018-Apr-18 10:59N 45°19' E 036°31'3 6.8
2018-Apr-18 10:30N 45°20' E 036°35'3 6.7
2018-Apr-18 10:00N 45°21' E 036°40'0 0.8
2018-Apr-18 09:30N 45°21' E 036°40'0 0.0
2018-Apr-18 09:00N 45°21' E 036°40'2 3.0
2018-Apr-18 08:30N 45°22' E 036°41'1 1.4
2018-Apr-18 08:00N 45°21' E 036°41'1 1.8
2018-Apr-18 07:30N 45°20' E 036°40'1 2.9
2018-Apr-18 07:00N 45°22' E 036°40'1 2.6
2018-Apr-18 06:30N 45°21' E 036°40'0 0.0
2018-Apr-18 06:00N 45°21' E 036°40'0 0.0
2018-Apr-18 05:30N 45°21' E 036°40'0 0.0
2018-Apr-18 05:00N 45°21' E 036°40'0 0.0
2018-Apr-18 04:30N 45°21' E 036°40'0 0.0
2018-Apr-18 04:00N 45°21' E 036°40'0 0.0
2018-Apr-18 03:30N 45°21' E 036°40'0 0.0
2018-Apr-18 03:00N 45°21' E 036°40'0 0.0
2018-Apr-18 02:30N 45°21' E 036°40'0 0.0
2018-Apr-18 02:00N 45°21' E 036°40'0 0.0
2018-Apr-18 01:30N 45°21' E 036°40'0 0.0
2018-Apr-18 01:00N 45°21' E 036°40'0 0.0
2018-Apr-18 00:29N 45°21' E 036°40'0 0.0
2018-Apr-18 00:00N 45°21' E 036°40'0 0.0
2018-Apr-17 23:30N 45°21' E 036°40'0 0.0
2018-Apr-17 23:00N 45°21' E 036°40'0 0.0
2018-Apr-17 22:30N 45°21' E 036°40'0 0.0
2018-Apr-17 22:00N 45°21' E 036°40'0 0.0
2018-Apr-17 21:30N 45°21' E 036°40'0 0.0
2018-Apr-17 21:00N 45°21' E 036°40'0 0.0
2018-Apr-17 20:30N 45°21' E 036°40'0 0.0
2018-Apr-17 20:00N 45°21' E 036°40'0 0.0
2018-Apr-17 19:30N 45°21' E 036°40'0 0.0
2018-Apr-17 19:00N 45°21' E 036°40'0 0.0
2018-Apr-17 18:30N 45°21' E 036°40'0 0.0
2018-Apr-17 18:00N 45°21' E 036°40'0 0.0
2018-Apr-17 17:30N 45°21' E 036°40'0 0.0
2018-Apr-17 17:00N 45°21' E 036°40'0 0.0
2018-Apr-17 16:30N 45°21' E 036°40'0 0.0
2018-Apr-17 16:00N 45°21' E 036°40'1 2.7
2018-Apr-17 15:30N 45°20' E 036°38'4 7.2
2018-Apr-17 15:00N 45°19' E 036°34'4 6.7
2018-Apr-17 14:29N 45°17' E 036°29'10 3.1
2018-Apr-17 11:20N 45°08' E 036°33'3 7.3
2018-Apr-17 10:52N 45°11' E 036°31'3 7.1
2018-Apr-17 10:29N 45°13' E 036°29'3 7.0
2018-Apr-17 10:00N 45°17' E 036°29'3 6.3
2018-Apr-17 09:30N 45°19' E 036°32'4 7.1
2018-Apr-17 09:00N 45°20' E 036°37'3 5.3
2018-Apr-17 08:30N 45°20' E 036°40'0 0.3
2018-Apr-17 08:00N 45°21' E 036°40'0 0.0
2018-Apr-17 07:30N 45°21' E 036°40'0 0.0
2018-Apr-17 07:00N 45°21' E 036°40'0 0.0
2018-Apr-17 06:30N 45°21' E 036°40'0 0.0
2018-Apr-17 06:00N 45°21' E 036°40'0 0.0
2018-Apr-17 05:31N 45°21' E 036°40'2 3.3
2018-Apr-17 05:00N 45°20' E 036°38'4 7.4
2018-Apr-17 04:30N 45°19' E 036°33'3 6.7
2018-Apr-17 04:00N 45°17' E 036°29'4 7.7
2018-Apr-17 03:30N 45°13' E 036°29'4 7.6
2018-Apr-17 03:01N 45°10' E 036°32'4 7.6
2018-Apr-17 02:30N 45°07' E 036°35'0 0.2
2018-Apr-17 01:59N 45°07' E 036°36'1 0.3
2018-Apr-16 23:22N 45°07' E 036°35'2 3.3
2018-Apr-16 22:37N 45°09' E 036°33'0 0.2
2018-Apr-16 22:30N 45°09' E 036°33'0 0.3
2018-Apr-16 22:00N 45°09' E 036°33'10 6.1
2018-Apr-16 20:24N 45°19' E 036°31'3 6.8
2018-Apr-16 19:59N 45°19' E 036°34'3 6.7
2018-Apr-16 19:30N 45°21' E 036°39'1 2.5
2018-Apr-16 19:00N 45°20' E 036°40'0 0.0
2018-Apr-16 18:30N 45°20' E 036°40'2 3.6
2018-Apr-16 18:00N 45°20' E 036°38'4 7.4
2018-Apr-16 17:30N 45°19' E 036°33'10 1.6
2018-Apr-16 11:20N 45°09' E 036°33'3 7.2
2018-Apr-16 10:55N 45°11' E 036°31'3 7.2
2018-Apr-16 10:29N 45°14' E 036°28'3 7.1
2018-Apr-16 09:59N 45°18' E 036°29'3 6.4
2018-Apr-16 09:30N 45°19' E 036°33'4 7.2
2018-Apr-16 09:00N 45°20' E 036°38'2 3.8
2018-Apr-16 08:31N 45°20' E 036°40'0 0.3
2018-Apr-16 08:00N 45°21' E 036°40'0 0.0
2018-Apr-16 07:30N 45°21' E 036°40'0 0.0
2018-Apr-16 07:00N 45°21' E 036°40'0 0.0
2018-Apr-16 06:30N 45°21' E 036°40'1 1.1
2018-Apr-16 06:01N 45°21' E 036°40'4 7.8
2018-Apr-16 05:30N 45°19' E 036°34'4 7.4
2018-Apr-16 04:55N 45°17' E 036°29'1 0.3
2018-Apr-16 01:17N 45°18' E 036°30'2 7.3
2018-Apr-16 01:00N 45°19' E 036°33'4 7.3
2018-Apr-16 00:30N 45°20' E 036°37'2 4.3
2018-Apr-16 00:00N 45°21' E 036°40'0 0.0
2018-Apr-15 23:30N 45°21' E 036°40'0 0.0
2018-Apr-15 23:00N 45°21' E 036°40'0 0.0
2018-Apr-15 22:29N 45°21' E 036°40'0 0.0
2018-Apr-15 22:00N 45°21' E 036°40'0 0.0
2018-Apr-15 21:30N 45°21' E 036°40'0 0.0
2018-Apr-15 21:00N 45°21' E 036°40'0 0.0
2018-Apr-15 20:30N 45°21' E 036°40'0 0.0
2018-Apr-15 20:00N 45°21' E 036°40'0 0.0
2018-Apr-15 19:30N 45°21' E 036°40'0 0.0
2018-Apr-15 19:00N 45°21' E 036°40'0 0.0
2018-Apr-15 18:31N 45°21' E 036°40'0 0.0
2018-Apr-15 18:00N 45°21' E 036°40'0 0.0
2018-Apr-15 17:31N 45°21' E 036°40'0 0.0
2018-Apr-15 17:00N 45°21' E 036°40'0 0.0
2018-Apr-15 16:30N 45°21' E 036°40'0 0.0
2018-Apr-15 16:00N 45°21' E 036°40'0 0.0
2018-Apr-15 15:30N 45°21' E 036°40'0 0.0
2018-Apr-15 15:00N 45°21' E 036°40'0 0.3
2018-Apr-15 14:30N 45°20' E 036°40'2 3.3
2018-Apr-15 14:00N 45°20' E 036°38'3 6.6
2018-Apr-15 13:30N 45°19' E 036°34'4 6.1
2018-Apr-15 12:53N 45°17' E 036°29'9 3.0
2018-Apr-15 09:50N 45°09' E 036°32'3 6.7
2018-Apr-15 09:25N 45°11' E 036°31'3 6.6
2018-Apr-15 08:59N 45°14' E 036°28'3 7.1
2018-Apr-15 08:30N 45°17' E 036°28'3 6.8
2018-Apr-15 08:00N 45°19' E 036°33'4 7.5
2018-Apr-15 07:30N 45°20' E 036°37'2 4.2
2018-Apr-15 07:00N 45°20' E 036°40'0 0.3
2018-Apr-15 06:30N 45°21' E 036°40'0 0.0
2018-Apr-15 06:00N 45°21' E 036°40'0 0.0
2018-Apr-15 05:30N 45°21' E 036°40'0 0.0
2018-Apr-15 05:00N 45°21' E 036°40'0 0.0
2018-Apr-15 04:30N 45°21' E 036°40'0 0.0
2018-Apr-15 04:00N 45°21' E 036°40'0 0.0
2018-Apr-15 03:30N 45°21' E 036°40'0 0.0
2018-Apr-15 03:00N 45°21' E 036°40'0 0.0
2018-Apr-15 02:30N 45°21' E 036°40'0 0.0
2018-Apr-15 02:00N 45°21' E 036°40'0 0.0
2018-Apr-15 01:30N 45°21' E 036°40'0 0.0
2018-Apr-15 01:00N 45°21' E 036°40'0 0.0
2018-Apr-15 00:30N 45°21' E 036°40'0 0.0
2018-Apr-15 00:00N 45°21' E 036°40'0 0.0
2018-Apr-14 23:30N 45°21' E 036°40'2 3.1
2018-Apr-14 23:00N 45°20' E 036°38'3 6.5
2018-Apr-14 22:30N 45°19' E 036°34'4 6.0
2018-Apr-14 21:49N 45°17' E 036°29'9 1.6
2018-Apr-14 16:12N 45°08' E 036°34'2 7.1
2018-Apr-14 15:58N 45°10' E 036°32'4 7.2
2018-Apr-14 15:28N 45°13' E 036°29'3 6.9
2018-Apr-14 15:00N 45°16' E 036°28'4 6.7
2018-Apr-14 14:29N 45°19' E 036°31'3 7.3
2018-Apr-14 14:00N 45°20' E 036°36'3 6.7
2018-Apr-14 13:30N 45°20' E 036°40'0 0.2
2018-Apr-14 13:00N 45°20' E 036°40'0 0.3
2018-Apr-14 12:31N 45°21' E 036°40'0 0.0
2018-Apr-14 12:00N 45°21' E 036°40'0 0.0
2018-Apr-14 11:30N 45°21' E 036°40'0 0.0
2018-Apr-14 11:00N 45°21' E 036°40'0 0.0
2018-Apr-14 10:30N 45°21' E 036°40'0 0.0
2018-Apr-14 10:00N 45°21' E 036°40'0 0.0
2018-Apr-14 09:30N 45°21' E 036°40'0 0.0
2018-Apr-14 09:00N 45°21' E 036°40'0 0.0
2018-Apr-14 08:30N 45°21' E 036°40'0 0.0
2018-Apr-14 07:59N 45°21' E 036°40'0 0.0
2018-Apr-14 07:30N 45°21' E 036°40'0 0.0
2018-Apr-14 06:59N 45°21' E 036°40'0 0.0
2018-Apr-14 06:30N 45°21' E 036°40'0 0.0
2018-Apr-14 06:00N 45°21' E 036°40'0 0.0
2018-Apr-14 05:30N 45°21' E 036°40'0 0.0
2018-Apr-14 05:00N 45°21' E 036°40'0 0.0
2018-Apr-14 04:30N 45°21' E 036°40'0 0.0
2018-Apr-14 04:00N 45°21' E 036°40'0 0.0
2018-Apr-14 03:30N 45°21' E 036°40'0 0.0
2018-Apr-14 03:00N 45°21' E 036°40'0 0.0
2018-Apr-14 02:30N 45°21' E 036°40'0 0.0
2018-Apr-14 02:00N 45°21' E 036°40'0 0.0
2018-Apr-14 01:30N 45°21' E 036°40'0 0.0
2018-Apr-14 01:00N 45°21' E 036°40'0 0.0
2018-Apr-14 00:30N 45°21' E 036°40'0 0.0
2018-Apr-14 00:01N 45°21' E 036°40'0 0.0
2018-Apr-13 23:30N 45°21' E 036°40'2 3.5
2018-Apr-13 23:00N 45°22' E 036°40'2 3.5
2018-Apr-13 22:30N 45°21' E 036°40'0 0.1
2018-Apr-13 22:00N 45°21' E 036°40'0 0.0
2018-Apr-13 21:30N 45°21' E 036°40'0 0.0
2018-Apr-13 21:00N 45°21' E 036°40'0 0.0
2018-Apr-13 20:30N 45°21' E 036°40'0 0.0
2018-Apr-13 20:01N 45°21' E 036°40'0 0.0
2018-Apr-13 19:31N 45°21' E 036°40'0 0.0
2018-Apr-13 19:00N 45°21' E 036°40'0 0.0
2018-Apr-13 18:31N 45°21' E 036°40'0 0.0
2018-Apr-13 18:00N 45°21' E 036°40'0 0.0
2018-Apr-13 17:31N 45°21' E 036°40'0 0.3
2018-Apr-13 17:00N 45°20' E 036°40'3 5.8
2018-Apr-13 16:31N 45°20' E 036°36'3 6.6
2018-Apr-13 16:00N 45°19' E 036°32'3 5.7
2018-Apr-13 15:26N 45°16' E 036°29'4 0.7
2018-Apr-13 09:15N 45°12' E 036°30'2 7.0
2018-Apr-13 09:00N 45°13' E 036°28'4 6.9
2018-Apr-13 08:29N 45°17' E 036°29'3 6.7
2018-Apr-13 08:00N 45°19' E 036°32'4 7.2
2018-Apr-13 07:31N 45°20' E 036°37'2 4.9
2018-Apr-13 07:00N 45°20' E 036°40'0 0.3
2018-Apr-13 06:31N 45°21' E 036°40'0 0.0
2018-Apr-13 06:00N 45°21' E 036°40'0 0.0
2018-Apr-13 05:30N 45°21' E 036°40'  
Track history (hours):
 
Tides and Currents Weather Stations Pressure Air Temp Water Temp Dewpoint Dewpoint Depression Visibility Wind Speed Wind Dir Waves Ship Positions

Rk 19

Last reported at 2018-Apr-23 05:31 UTC. Time now 2018-Apr-23 05:29 UTC.
Position N 45°21' E 036°40'.

Length 19 m; draft 1.6 m.

Type: Passenger vessel. MMSI: 273424540.

Date/timePositionNaut miles runAvg speedWind from/ knotsBaromVisibWave heightAir tempDewpointWater temp
2018-Apr-23 05:31N 45°21' E 036°40'0 0.0
2018-Apr-23 05:01N 45°21' E 036°40'0 0.0
2018-Apr-23 04:30N 45°21' E 036°40'0 0.0
2018-Apr-23 04:01N 45°21' E 036°40'0 0.0
2018-Apr-23 03:31N 45°21' E 036°40'0 0.0
2018-Apr-23 03:00N 45°21' E 036°40'0 0.0
2018-Apr-23 02:30N 45°21' E 036°40'0 0.0
2018-Apr-23 02:00N 45°21' E 036°40'0 0.0
2018-Apr-23 01:30N 45°21' E 036°40'0 0.0
2018-Apr-23 01:00N 45°21' E 036°40'0 0.0
2018-Apr-23 00:30N 45°21' E 036°40'0 0.0
2018-Apr-22 23:59N 45°21' E 036°40'0 0.0
2018-Apr-22 23:30N 45°21' E 036°40'1 1.6
2018-Apr-22 23:00N 45°21' E 036°39'14 2.2
2018-Apr-22 16:34N 45°07' E 036°35'2 2.9
2018-Apr-22 15:55N 45°08' E 036°33'2 5.3
2018-Apr-22 15:29N 45°10' E 036°31'4 7.2
2018-Apr-22 14:55N 45°14' E 036°29'3 7.2
2018-Apr-22 14:31N 45°17' E 036°29'3 5.9
2018-Apr-22 14:00N 45°19' E 036°32'3 6.9
2018-Apr-22 13:31N 45°20' E 036°37'3 5.2
2018-Apr-22 13:00N 45°20' E 036°40'0 0.3
2018-Apr-22 12:31N 45°21' E 036°40'0 0.0
2018-Apr-22 12:01N 45°21' E 036°40'0 0.0
2018-Apr-22 11:31N 45°21' E 036°40'0 0.0
2018-Apr-22 11:00N 45°21' E 036°40'0 0.0
2018-Apr-22 10:30N 45°21' E 036°40'0 0.0
2018-Apr-22 10:01N 45°21' E 036°40'0 0.0
2018-Apr-22 09:31N 45°21' E 036°40'0 0.0
2018-Apr-22 09:01N 45°21' E 036°40'0 0.0
2018-Apr-22 08:30N 45°21' E 036°40'0 0.0
2018-Apr-22 08:00N 45°21' E 036°40'0 0.0
2018-Apr-22 07:30N 45°21' E 036°40'0 0.0
2018-Apr-22 07:00N 45°21' E 036°40'0 0.0
2018-Apr-22 06:30N 45°21' E 036°40'0 0.0
2018-Apr-22 06:00N 45°21' E 036°40'0 0.0
2018-Apr-22 05:30N 45°21' E 036°40'0 0.0
2018-Apr-22 05:00N 45°21' E 036°40'0 0.0
2018-Apr-22 04:30N 45°21' E 036°40'0 0.0
2018-Apr-22 03:59N 45°21' E 036°40'0 0.0
2018-Apr-22 03:30N 45°21' E 036°40'0 0.0
2018-Apr-22 03:00N 45°21' E 036°40'0 0.0
2018-Apr-22 02:30N 45°21' E 036°40'0 0.0
2018-Apr-22 02:00N 45°21' E 036°40'0 0.0
2018-Apr-22 01:30N 45°21' E 036°40'0 0.0
2018-Apr-22 01:00N 45°21' E 036°40'0 0.0
2018-Apr-22 00:31N 45°21' E 036°40'0 0.0
2018-Apr-22 00:00N 45°21' E 036°40'0 0.0
2018-Apr-21 23:31N 45°21' E 036°40'0 0.0
2018-Apr-21 23:00N 45°21' E 036°40'0 0.0
2018-Apr-21 22:30N 45°21' E 036°40'0 0.0
2018-Apr-21 22:00N 45°21' E 036°40'0 0.0
2018-Apr-21 21:30N 45°21' E 036°40'0 0.0
2018-Apr-21 21:01N 45°21' E 036°40'0 0.0
2018-Apr-21 20:30N 45°21' E 036°40'0 0.0
2018-Apr-21 20:00N 45°21' E 036°40'0 0.0
2018-Apr-21 19:29N 45°21' E 036°40'0 0.0
2018-Apr-21 19:00N 45°21' E 036°40'0 0.0
2018-Apr-21 18:30N 45°21' E 036°40'0 0.0
2018-Apr-21 18:00N 45°21' E 036°40'0 0.0
2018-Apr-21 17:30N 45°21' E 036°40'0 0.0
2018-Apr-21 17:00N 45°21' E 036°40'0 0.0
2018-Apr-21 16:30N 45°21' E 036°40'0 0.0
2018-Apr-21 16:00N 45°21' E 036°40'1 2.8
2018-Apr-21 15:31N 45°20' E 036°38'3 6.8
2018-Apr-21 15:00N 45°19' E 036°34'5 6.1
2018-Apr-21 14:14N 45°16' E 036°29'5 1.5
2018-Apr-21 10:44N 45°11' E 036°31'2 7.0
2018-Apr-21 10:29N 45°13' E 036°29'3 6.7
2018-Apr-21 10:00N 45°16' E 036°28'3 6.6
2018-Apr-21 09:30N 45°19' E 036°31'3 7.0
2018-Apr-21 09:00N 45°20' E 036°35'3 6.8
2018-Apr-21 08:30N 45°21' E 036°40'0 0.7
2018-Apr-21 08:00N 45°20' E 036°40'0 0.3
2018-Apr-21 07:30N 45°21' E 036°40'0 0.0
2018-Apr-21 07:00N 45°21' E 036°40'0 0.0
2018-Apr-21 06:30N 45°21' E 036°40'0 0.0
2018-Apr-21 06:00N 45°21' E 036°40'0 0.0
2018-Apr-21 05:30N 45°21' E 036°40'0 0.0
2018-Apr-21 05:01N 45°21' E 036°40'0 0.0
2018-Apr-21 04:31N 45°21' E 036°40'0 0.0
2018-Apr-21 04:01N 45°21' E 036°40'0 0.0
2018-Apr-21 03:30N 45°21' E 036°40'0 0.0
2018-Apr-21 03:01N 45°21' E 036°40'0 0.0
2018-Apr-21 02:30N 45°21' E 036°40'0 0.0
2018-Apr-21 02:01N 45°21' E 036°40'0 0.0
2018-Apr-21 01:31N 45°21' E 036°40'0 0.0
2018-Apr-21 01:00N 45°21' E 036°40'0 0.0
2018-Apr-21 00:31N 45°21' E 036°40'0 0.0
2018-Apr-21 00:01N 45°21' E 036°40'0 0.0
2018-Apr-20 23:31N 45°21' E 036°40'0 0.0
2018-Apr-20 23:01N 45°21' E 036°40'1 2.1
2018-Apr-20 22:30N 45°21' E 036°39'3 6.6
2018-Apr-20 22:00N 45°19' E 036°34'3 6.4
2018-Apr-20 21:29N 45°18' E 036°30'7 0.7
2018-Apr-20 10:43N 45°11' E 036°30'2 7.4
2018-Apr-20 10:29N 45°13' E 036°29'3 7.1
2018-Apr-20 10:00N 45°16' E 036°28'3 6.5
2018-Apr-20 09:30N 45°19' E 036°31'4 7.2
2018-Apr-20 09:00N 45°20' E 036°36'3 6.3
2018-Apr-20 08:30N 45°20' E 036°40'0 0.1
2018-Apr-20 08:00N 45°20' E 036°40'0 0.3
2018-Apr-20 07:29N 45°21' E 036°40'0 0.0
2018-Apr-20 07:00N 45°21' E 036°40'0 0.0
2018-Apr-20 06:30N 45°21' E 036°40'0 0.0
2018-Apr-20 06:00N 45°21' E 036°40'0 0.0
2018-Apr-20 05:30N 45°21' E 036°40'0 0.0
2018-Apr-20 05:00N 45°21' E 036°40'0 0.0
2018-Apr-20 04:30N 45°21' E 036°40'0 0.0
2018-Apr-20 04:00N 45°21' E 036°40'0 0.0
2018-Apr-20 03:30N 45°21' E 036°40'0 0.0
2018-Apr-20 03:00N 45°21' E 036°40'0 0.6
2018-Apr-20 02:30N 45°21' E 036°40'0 0.6
2018-Apr-20 02:00N 45°21' E 036°40'0 0.0
2018-Apr-20 01:30N 45°21' E 036°40'0 0.0
2018-Apr-20 01:00N 45°21' E 036°40'0 0.0
2018-Apr-20 00:30N 45°21' E 036°40'0 0.0
2018-Apr-20 00:00N 45°21' E 036°40'0 0.0
2018-Apr-19 23:30N 45°21' E 036°40'0 0.0
2018-Apr-19 23:00N 45°21' E 036°40'0 0.0
2018-Apr-19 22:29N 45°21' E 036°40'0 0.0
2018-Apr-19 21:58N 45°21' E 036°40'0 0.0
2018-Apr-19 21:30N 45°21' E 036°40'0 0.0
2018-Apr-19 21:00N 45°21' E 036°40'0 0.0
2018-Apr-19 20:30N 45°21' E 036°40'0 0.0
2018-Apr-19 20:00N 45°21' E 036°40'0 0.0
2018-Apr-19 19:30N 45°21' E 036°40'0 0.0
2018-Apr-19 19:00N 45°21' E 036°40'0 0.2
2018-Apr-19 18:30N 45°20' E 036°40'2 4.3
2018-Apr-19 18:00N 45°23' E 036°40'2 4.1
2018-Apr-19 17:30N 45°21' E 036°40'0 0.0
2018-Apr-19 17:00N 45°21' E 036°40'0 0.0
2018-Apr-19 16:30N 45°21' E 036°40'0 0.0
2018-Apr-19 16:00N 45°21' E 036°40'0 0.0
2018-Apr-19 15:30N 45°21' E 036°40'0 0.0
2018-Apr-19 15:00N 45°21' E 036°40'0 0.3
2018-Apr-19 14:30N 45°20' E 036°40'3 6.1
2018-Apr-19 14:00N 45°20' E 036°36'4 7.3
2018-Apr-19 13:29N 45°19' E 036°31'8 3.2
2018-Apr-19 10:50N 45°10' E 036°33'3 7.1
2018-Apr-19 10:27N 45°12' E 036°30'3 6.8
2018-Apr-19 09:58N 45°15' E 036°28'3 7.0
2018-Apr-19 09:30N 45°18' E 036°30'3 7.0
2018-Apr-19 09:00N 45°19' E 036°34'4 0.4
2018-Apr-18 21:10N 45°21' E 036°40'0 0.0
2018-Apr-18 21:00N 45°21' E 036°40'2 4.8
2018-Apr-18 20:30N 45°20' E 036°37'13 2.7
2018-Apr-18 15:28N 45°07' E 036°34'2 3.7
2018-Apr-18 15:00N 45°08' E 036°34'2 3.0
2018-Apr-18 14:29N 45°10' E 036°33'0 0.0
2018-Apr-18 14:00N 45°10' E 036°33'0 0.0
2018-Apr-18 13:30N 45°10' E 036°33'1 2.8
2018-Apr-18 13:00N 45°09' E 036°35'2 4.1
2018-Apr-18 12:30N 45°10' E 036°32'3 6.9
2018-Apr-18 12:00N 45°13' E 036°29'3 6.6
2018-Apr-18 11:30N 45°16' E 036°28'3 6.4
2018-Apr-18 10:59N 45°19' E 036°31'3 6.8
2018-Apr-18 10:30N 45°20' E 036°35'3 6.7
2018-Apr-18 10:00N 45°21' E 036°40'0 0.8
2018-Apr-18 09:30N 45°21' E 036°40'0 0.0
2018-Apr-18 09:00N 45°21' E 036°40'2 3.0
2018-Apr-18 08:30N 45°22' E 036°41'1 1.4
2018-Apr-18 08:00N 45°21' E 036°41'1 1.8
2018-Apr-18 07:30N 45°20' E 036°40'1 2.9
2018-Apr-18 07:00N 45°22' E 036°40'1 2.6
2018-Apr-18 06:30N 45°21' E 036°40'0 0.0
2018-Apr-18 06:00N 45°21' E 036°40'0 0.0
2018-Apr-18 05:30N 45°21' E 036°40'0 0.0
2018-Apr-18 05:00N 45°21' E 036°40'0 0.0
2018-Apr-18 04:30N 45°21' E 036°40'0 0.0
2018-Apr-18 04:00N 45°21' E 036°40'0 0.0
2018-Apr-18 03:30N 45°21' E 036°40'0 0.0
2018-Apr-18 03:00N 45°21' E 036°40'0 0.0
2018-Apr-18 02:30N 45°21' E 036°40'0 0.0
2018-Apr-18 02:00N 45°21' E 036°40'0 0.0
2018-Apr-18 01:30N 45°21' E 036°40'0 0.0
2018-Apr-18 01:00N 45°21' E 036°40'0 0.0
2018-Apr-18 00:29N 45°21' E 036°40'0 0.0
2018-Apr-18 00:00N 45°21' E 036°40'0 0.0
2018-Apr-17 23:30N 45°21' E 036°40'0 0.0
2018-Apr-17 23:00N 45°21' E 036°40'0 0.0
2018-Apr-17 22:30N 45°21' E 036°40'0 0.0
2018-Apr-17 22:00N 45°21' E 036°40'0 0.0
2018-Apr-17 21:30N 45°21' E 036°40'0 0.0
2018-Apr-17 21:00N 45°21' E 036°40'0 0.0
2018-Apr-17 20:30N 45°21' E 036°40'0 0.0
2018-Apr-17 20:00N 45°21' E 036°40'0 0.0
2018-Apr-17 19:30N 45°21' E 036°40'0 0.0
2018-Apr-17 19:00N 45°21' E 036°40'0 0.0
2018-Apr-17 18:30N 45°21' E 036°40'0 0.0
2018-Apr-17 18:00N 45°21' E 036°40'0 0.0
2018-Apr-17 17:30N 45°21' E 036°40'0 0.0
2018-Apr-17 17:00N 45°21' E 036°40'0 0.0
2018-Apr-17 16:30N 45°21' E 036°40'0 0.0
2018-Apr-17 16:00N 45°21' E 036°40'1 2.7
2018-Apr-17 15:30N 45°20' E 036°38'4 7.2
2018-Apr-17 15:00N 45°19' E 036°34'4 6.7
2018-Apr-17 14:29N 45°17' E 036°29'10 3.1
2018-Apr-17 11:20N 45°08' E 036°33'3 7.3
2018-Apr-17 10:52N 45°11' E 036°31'3 7.1
2018-Apr-17 10:29N 45°13' E 036°29'3 7.0
2018-Apr-17 10:00N 45°17' E 036°29'3 6.3
2018-Apr-17 09:30N 45°19' E 036°32'4 7.1
2018-Apr-17 09:00N 45°20' E 036°37'3 5.3
2018-Apr-17 08:30N 45°20' E 036°40'0 0.3
2018-Apr-17 08:00N 45°21' E 036°40'0 0.0
2018-Apr-17 07:30N 45°21' E 036°40'0 0.0
2018-Apr-17 07:00N 45°21' E 036°40'0 0.0
2018-Apr-17 06:30N 45°21' E 036°40'0 0.0
2018-Apr-17 06:00N 45°21' E 036°40'0 0.0
2018-Apr-17 05:31N 45°21' E 036°40'2 3.3
2018-Apr-17 05:00N 45°20' E 036°38'4 7.4
2018-Apr-17 04:30N 45°19' E 036°33'3 6.7
2018-Apr-17 04:00N 45°17' E 036°29'4 7.7
2018-Apr-17 03:30N 45°13' E 036°29'4 7.6
2018-Apr-17 03:01N 45°10' E 036°32'4 7.6
2018-Apr-17 02:30N 45°07' E 036°35'0 0.2
2018-Apr-17 01:59N 45°07' E 036°36'1 0.3
2018-Apr-16 23:22N 45°07' E 036°35'2 3.3
2018-Apr-16 22:37N 45°09' E 036°33'0 0.2
2018-Apr-16 22:30N 45°09' E 036°33'0 0.3
2018-Apr-16 22:00N 45°09' E 036°33'10 6.1
2018-Apr-16 20:24N 45°19' E 036°31'3 6.8
2018-Apr-16 19:59N 45°19' E 036°34'3 6.7
2018-Apr-16 19:30N 45°21' E 036°39'1 2.5
2018-Apr-16 19:00N 45°20' E 036°40'0 0.0
2018-Apr-16 18:30N 45°20' E 036°40'2 3.6
2018-Apr-16 18:00N 45°20' E 036°38'4 7.4
2018-Apr-16 17:30N 45°19' E 036°33'10 1.6
2018-Apr-16 11:20N 45°09' E 036°33'3 7.2
2018-Apr-16 10:55N 45°11' E 036°31'3 7.2
2018-Apr-16 10:29N 45°14' E 036°28'3 7.1
2018-Apr-16 09:59N 45°18' E 036°29'3 6.4
2018-Apr-16 09:30N 45°19' E 036°33'4 7.2
2018-Apr-16 09:00N 45°20' E 036°38'2 3.8
2018-Apr-16 08:31N 45°20' E 036°40'0 0.3
2018-Apr-16 08:00N 45°21' E 036°40'0 0.0
2018-Apr-16 07:30N 45°21' E 036°40'0 0.0
2018-Apr-16 07:00N 45°21' E 036°40'0 0.0
2018-Apr-16 06:30N 45°21' E 036°40'1 1.1
2018-Apr-16 06:01N 45°21' E 036°40'4 7.8
2018-Apr-16 05:30N 45°19' E 036°34'4 7.4
2018-Apr-16 04:55N 45°17' E 036°29'1 0.3
2018-Apr-16 01:17N 45°18' E 036°30'2 7.3
2018-Apr-16 01:00N 45°19' E 036°33'4 7.3
2018-Apr-16 00:30N 45°20' E 036°37'2 4.3
2018-Apr-16 00:00N 45°21' E 036°40'0 0.0
2018-Apr-15 23:30N 45°21' E 036°40'0 0.0
2018-Apr-15 23:00N 45°21' E 036°40'0 0.0
2018-Apr-15 22:29N 45°21' E 036°40'0 0.0
2018-Apr-15 22:00N 45°21' E 036°40'0 0.0
2018-Apr-15 21:30N 45°21' E 036°40'0 0.0
2018-Apr-15 21:00N 45°21' E 036°40'0 0.0
2018-Apr-15 20:30N 45°21' E 036°40'0 0.0
2018-Apr-15 20:00N 45°21' E 036°40'0 0.0
2018-Apr-15 19:30N 45°21' E 036°40'0 0.0
2018-Apr-15 19:00N 45°21' E 036°40'0 0.0
2018-Apr-15 18:31N 45°21' E 036°40'0 0.0
2018-Apr-15 18:00N 45°21' E 036°40'0 0.0
2018-Apr-15 17:31N 45°21' E 036°40'0 0.0
2018-Apr-15 17:00N 45°21' E 036°40'0 0.0
2018-Apr-15 16:30N 45°21' E 036°40'0 0.0
2018-Apr-15 16:00N 45°21' E 036°40'0 0.0
2018-Apr-15 15:30N 45°21' E 036°40'0 0.0
2018-Apr-15 15:00N 45°21' E 036°40'0 0.3
2018-Apr-15 14:30N 45°20' E 036°40'2 3.3
2018-Apr-15 14:00N 45°20' E 036°38'3 6.6
2018-Apr-15 13:30N 45°19' E 036°34'4 6.1
2018-Apr-15 12:53N 45°17' E 036°29'9 3.0
2018-Apr-15 09:50N 45°09' E 036°32'3 6.7
2018-Apr-15 09:25N 45°11' E 036°31'3 6.6
2018-Apr-15 08:59N 45°14' E 036°28'3 7.1
2018-Apr-15 08:30N 45°17' E 036°28'3 6.8
2018-Apr-15 08:00N 45°19' E 036°33'4 7.5
2018-Apr-15 07:30N 45°20' E 036°37'2 4.2
2018-Apr-15 07:00N 45°20' E 036°40'0 0.3
2018-Apr-15 06:30N 45°21' E 036°40'0 0.0
2018-Apr-15 06:00N 45°21' E 036°40'0 0.0
2018-Apr-15 05:30N 45°21' E 036°40'0 0.0
2018-Apr-15 05:00N 45°21' E 036°40'0 0.0
2018-Apr-15 04:30N 45°21' E 036°40'0 0.0
2018-Apr-15 04:00N 45°21' E 036°40'0 0.0
2018-Apr-15 03:30N 45°21' E 036°40'0 0.0
2018-Apr-15 03:00N 45°21' E 036°40'0 0.0
2018-Apr-15 02:30N 45°21' E 036°40'0 0.0
2018-Apr-15 02:00N 45°21' E 036°40'0 0.0
2018-Apr-15 01:30N 45°21' E 036°40'0 0.0
2018-Apr-15 01:00N 45°21' E 036°40'0 0.0
2018-Apr-15 00:30N 45°21' E 036°40'0 0.0
2018-Apr-15 00:00N 45°21' E 036°40'0 0.0
2018-Apr-14 23:30N 45°21' E 036°40'2 3.1
2018-Apr-14 23:00N 45°20' E 036°38'3 6.5
2018-Apr-14 22:30N 45°19' E 036°34'4 6.0
2018-Apr-14 21:49N 45°17' E 036°29'9 1.6
2018-Apr-14 16:12N 45°08' E 036°34'2 7.1
2018-Apr-14 15:58N 45°10' E 036°32'4 7.2
2018-Apr-14 15:28N 45°13' E 036°29'3 6.9
2018-Apr-14 15:00N 45°16' E 036°28'4 6.7
2018-Apr-14 14:29N 45°19' E 036°31'3 7.3
2018-Apr-14 14:00N 45°20' E 036°36'3 6.7
2018-Apr-14 13:30N 45°20' E 036°40'0 0.2
2018-Apr-14 13:00N 45°20' E 036°40'0 0.3
2018-Apr-14 12:31N 45°21' E 036°40'0 0.0
2018-Apr-14 12:00N 45°21' E 036°40'0 0.0
2018-Apr-14 11:30N 45°21' E 036°40'0 0.0
2018-Apr-14 11:00N 45°21' E 036°40'0 0.0
2018-Apr-14 10:30N 45°21' E 036°40'0 0.0
2018-Apr-14 10:00N 45°21' E 036°40'0 0.0
2018-Apr-14 09:30N 45°21' E 036°40'0 0.0
2018-Apr-14 09:00N 45°21' E 036°40'0 0.0
2018-Apr-14 08:30N 45°21' E 036°40'0 0.0
2018-Apr-14 07:59N 45°21' E 036°40'0 0.0
2018-Apr-14 07:30N 45°21' E 036°40'0 0.0
2018-Apr-14 06:59N 45°21' E 036°40'0 0.0
2018-Apr-14 06:30N 45°21' E 036°40'0 0.0
2018-Apr-14 06:00N 45°21' E 036°40'0 0.0
2018-Apr-14 05:30N 45°21' E 036°40'0 0.0
2018-Apr-14 05:00N 45°21' E 036°40'0 0.0
2018-Apr-14 04:30N 45°21' E 036°40'0 0.0
2018-Apr-14 04:00N 45°21' E 036°40'0 0.0
2018-Apr-14 03:30N 45°21' E 036°40'0 0.0
2018-Apr-14 03:00N 45°21' E 036°40'0 0.0
2018-Apr-14 02:30N 45°21' E 036°40'0 0.0
2018-Apr-14 02:00N 45°21' E 036°40'0 0.0
2018-Apr-14 01:30N 45°21' E 036°40'0 0.0
2018-Apr-14 01:00N 45°21' E 036°40'0 0.0
2018-Apr-14 00:30N 45°21' E 036°40'0 0.0
2018-Apr-14 00:01N 45°21' E 036°40'0 0.0
2018-Apr-13 23:30N 45°21' E 036°40'2 3.5
2018-Apr-13 23:00N 45°22' E 036°40'2 3.5
2018-Apr-13 22:30N 45°21' E 036°40'0 0.1
2018-Apr-13 22:00N 45°21' E 036°40'0 0.0
2018-Apr-13 21:30N 45°21' E 036°40'0 0.0
2018-Apr-13 21:00N 45°21' E 036°40'0 0.0
2018-Apr-13 20:30N 45°21' E 036°40'0 0.0
2018-Apr-13 20:01N 45°21' E 036°40'0 0.0
2018-Apr-13 19:31N 45°21' E 036°40'0 0.0
2018-Apr-13 19:00N 45°21' E 036°40'0 0.0
2018-Apr-13 18:31N 45°21' E 036°40'0 0.0
2018-Apr-13 18:00N 45°21' E 036°40'0 0.0
2018-Apr-13 17:31N 45°21' E 036°40'0 0.3
2018-Apr-13 17:00N 45°20' E 036°40'3 5.8
2018-Apr-13 16:31N 45°20' E 036°36'3 6.6
2018-Apr-13 16:00N 45°19' E 036°32'3 5.7
2018-Apr-13 15:26N 45°16' E 036°29'4 0.7
2018-Apr-13 09:15N 45°12' E 036°30'2 7.0
2018-Apr-13 09:00N 45°13' E 036°28'4 6.9
2018-Apr-13 08:29N 45°17' E 036°29'3 6.7
2018-Apr-13 08:00N 45°19' E 036°32'4 7.2
2018-Apr-13 07:31N 45°20' E 036°37'2 4.9
2018-Apr-13 07:00N 45°20' E 036°40'0 0.3
2018-Apr-13 06:31N 45°21' E 036°40'0 0.0
2018-Apr-13 06:00N 45°21' E 036°40'0 0.0
2018-Apr-13 05:30N 45°21' E 036°40'  

Dump ship's entire track history